Arogyavaram, India

2:49 AM IST on October 25, 2014 (GMT +0530)
BENGALURU | Change Station
CLOSE
Current Station
Airport
Location: BENGALURU,
Elevation: 915 m
Nearby Weather Stations

Elev 915 m 13.20 °N, 77.71 °E | Updated 19 minutes ago

Haze
Haze
25 °C
Feels Like 25 °C
N
4
Wind Variable Wind from Variable

Today
High -- | Low -- °C
--% Chance of Precip.
Yesterday
High -- | Low -- °C
Precip. -- mm
6:08 AM 5:51 PM
New Moon, 1% visible
Pressure 1015 hPa
Visibility 3.0 kilometers
Clouds Mostly Cloudy 182 m
Scattered Clouds 365 m
Dew Point 25 °C
Humidity 100%
Rainfall 0.0 mm
Snow Depth Not available.
UV 0 out of 12
Pollen Not available.
Air Quality Not available.
Flu Activity Not available.
METAR VOBL 242100Z VRB02KT 3000 HZ BKN006 SCT012 25/25 Q1015 NOSIG

More Conditions Fewer Conditions

Pressure 1015 hPa
Visibility 3.0 kilometers
Clouds Mostly Cloudy 182 m
Scattered Clouds 365 m
Dew Point 25 °C
Humidity 100%
Rainfall 0.0 mm
Snow Depth Not available.
UV 0 out of 12
Pollen Not available.
Air Quality Not available.
Flu Activity Not available.
METAR VOBL 242100Z VRB02KT 3000 HZ BKN006 SCT012 25/25 Q1015 NOSIG

More Conditions Fewer Conditions

10-Day Weather Forecast

Almanac

Astronomy

Oct. 25, 2014 Rise Set
Actual Time 6:08 AM IST 5:51 PM IST
Civil Twilight 5:46 AM IST 6:13 PM IST
Nautical Twilight 5:21 AM IST 6:38 PM IST
Astronomical Twilight 4:56 AM IST 7:03 PM IST
Moon 7:10 AM IST (10/25) 7:04 PM IST (10/25)
Length of Visible Light 12h 26m
Length of Day
11h 43m
Tomorrow will be 0m 41s shorter.
New Moon, 1% of the Moon is Illuminated
Oct 24
New Moon
Oct 30
First Quarter
Nov 6
Full
Nov 14
Last Quarter
Nov 22
New

Yesterday's Extremes

Country Highs Country Lows

Community

WunderPhotos

Upload Photos

1,764,659 photos uploaded!

WunderBlogs® & News

By Dr. Jeff Masters
Director of Meteorology, Weather Underground
By Kari Strenfel
Meteorologist, Weather Underground
By Christopher C. Burt
Weather Historian, Weather Underground
October 24, 2014
October 24, 2014
October 24, 2014

Nearby

Snow Depth

Not available.

Earthquake Activity

City Distance Mag. Time & Date
No recent earthquake activity has been reported nearby.
Minimum magnitude displayed is 2.5.

Coastal Water Temperatures

Place Temperature
No Stations Reporting

Nearby Weather Stations